createdAt,value
2022-10-18T00:01:51.320Z,19.75
2022-10-18T00:07:35.762Z,19.74
2022-10-18T00:13:19.494Z,19.73
2022-10-18T00:19:03.553Z,19.74
2022-10-18T00:24:46.752Z,19.73
2022-10-18T00:30:29.928Z,19.7
2022-10-18T00:36:13.729Z,19.7
2022-10-18T00:41:57.100Z,19.7
2022-10-18T00:47:40.590Z,19.68
2022-10-18T00:53:23.924Z,19.68
2022-10-18T00:59:07.273Z,19.7
2022-10-18T01:04:50.494Z,19.69
2022-10-18T01:10:39.006Z,19.68
2022-10-18T01:16:26.944Z,19.67
2022-10-18T01:22:15.218Z,19.67
2022-10-18T01:28:04.409Z,19.66
2022-10-18T01:33:49.702Z,19.7
2022-10-18T01:39:35.357Z,19.71
2022-10-18T01:45:19.663Z,19.7
2022-10-18T01:51:02.913Z,19.67
2022-10-18T01:56:53.451Z,19.66
2022-10-18T02:02:41.672Z,19.65
2022-10-18T02:08:27.097Z,19.65
2022-10-18T02:14:11.911Z,19.65
2022-10-18T02:19:55.926Z,19.64
2022-10-18T02:25:39.288Z,19.62
2022-10-18T02:31:25.017Z,19.62
2022-10-18T02:37:08.396Z,19.63
2022-10-18T02:42:54.239Z,19.6
2022-10-18T02:48:37.409Z,19.61
2022-10-18T02:54:20.997Z,19.6
2022-10-18T03:00:04.857Z,19.6
2022-10-18T03:05:49.034Z,19.6
2022-10-18T03:11:32.348Z,19.6
2022-10-18T03:17:15.827Z,19.58
2022-10-18T03:22:58.998Z,19.57
2022-10-18T03:28:43.169Z,19.58
2022-10-18T03:34:26.741Z,19.6
2022-10-18T03:40:10.729Z,19.6
2022-10-18T03:45:53.963Z,19.59
2022-10-18T03:51:37.062Z,19.57
2022-10-18T03:57:20.199Z,19.57
2022-10-18T04:03:03.570Z,19.57
2022-10-18T04:08:46.935Z,19.59
2022-10-18T04:14:30.288Z,19.57
2022-10-18T04:20:14.413Z,19.58
2022-10-18T04:25:57.397Z,19.58
2022-10-18T04:31:40.631Z,19.56
2022-10-18T04:37:24.031Z,19.58
2022-10-18T04:43:07.231Z,19.58
2022-10-18T04:48:50.559Z,19.56
2022-10-18T04:54:33.952Z,19.56
2022-10-18T05:00:17.538Z,19.51
2022-10-18T05:06:02.886Z,19.56
2022-10-18T05:11:49.742Z,19.58
2022-10-18T05:17:33.219Z,19.57
2022-10-18T05:23:16.362Z,19.54
2022-10-18T05:28:59.496Z,19.53
2022-10-18T05:34:43.248Z,19.54
2022-10-18T05:40:26.390Z,19.6
2022-10-18T05:46:13.863Z,19.57
2022-10-18T05:51:58.322Z,19.56
2022-10-18T05:57:41.394Z,19.55
2022-10-18T06:03:24.635Z,19.55
2022-10-18T06:09:08.046Z,19.55
2022-10-18T06:14:51.227Z,19.54
2022-10-18T06:20:34.387Z,19.54
2022-10-18T06:26:18.038Z,19.55
2022-10-18T06:32:01.279Z,19.58
2022-10-18T06:37:44.316Z,19.63
2022-10-18T06:43:27.719Z,19.65
2022-10-18T06:49:12.207Z,19.7
2022-10-18T06:55:01.746Z,19.74
2022-10-18T07:00:50.858Z,19.81
2022-10-18T07:06:34.065Z,19.86
2022-10-18T07:12:17.260Z,19.91
2022-10-18T07:18:00.452Z,19.97
2022-10-18T07:23:44.542Z,20.03
2022-10-18T07:29:27.874Z,20.11
2022-10-18T07:41:00.563Z,20.32
2022-10-18T07:46:43.705Z,20.39
2022-10-18T07:52:27.039Z,20.42
2022-10-18T07:58:10.511Z,20.48
2022-10-18T08:03:53.757Z,20.52
2022-10-18T08:09:38.431Z,20.59
2022-10-18T08:15:21.518Z,20.66
2022-10-18T08:21:06.395Z,20.75
2022-10-18T08:26:50.722Z,20.81
2022-10-18T08:32:34.202Z,20.92
2022-10-18T08:38:18.200Z,21.05
2022-10-18T08:44:06.399Z,21.24
2022-10-18T08:49:52.591Z,21.32
2022-10-18T08:55:38.218Z,21.44
2022-10-18T09:01:28.119Z,21.61
2022-10-18T09:07:23.531Z,21.64
2022-10-18T09:13:21.262Z,21.69
2022-10-18T09:19:09.493Z,21.75
2022-10-18T09:24:56.611Z,21.92
2022-10-18T09:30:44.852Z,22.12
2022-10-18T09:36:30.959Z,22.29
2022-10-18T09:42:18.139Z,22.47
2022-10-18T09:48:07.057Z,22.6
2022-10-18T09:53:56.111Z,22.63
2022-10-18T09:59:40.899Z,22.74
2022-10-18T10:05:24.240Z,22.78
2022-10-18T10:11:13.569Z,22.99
2022-10-18T10:16:58.315Z,23.16
2022-10-18T10:22:42.272Z,23.2
2022-10-18T10:28:28.337Z,23.12
2022-10-18T10:34:18.231Z,23.19
2022-10-18T10:40:20.410Z,23.21
2022-10-18T10:46:11.902Z,23.42
2022-10-18T10:52:08.058Z,23.4
2022-10-18T10:58:03.171Z,23.61
2022-10-18T11:03:49.547Z,23.48
2022-10-18T11:09:38.902Z,23.34
2022-10-18T11:15:27.247Z,23.53
2022-10-18T11:21:12.917Z,23.67
2022-10-18T11:27:00.717Z,23.76
2022-10-18T11:32:47.649Z,23.83
2022-10-18T11:38:38.806Z,24.04
2022-10-18T11:44:27.301Z,24.15
2022-10-18T11:50:16.749Z,24.23
2022-10-18T11:56:04.546Z,24.33
2022-10-18T12:01:52.654Z,24.44
2022-10-18T12:07:39.689Z,24.52
2022-10-18T12:13:25.292Z,24.58
2022-10-18T12:19:13.455Z,24.66
2022-10-18T12:24:56.924Z,24.73
2022-10-18T12:30:43.550Z,24.83
2022-10-18T12:36:34.660Z,24.89
2022-10-18T12:42:22.437Z,24.98
2022-10-18T12:48:06.957Z,25.06
2022-10-18T12:53:55.050Z,25.06
2022-10-18T12:59:42.816Z,25.13
2022-10-18T13:05:48.662Z,25.18
2022-10-18T13:11:37.460Z,25.28
2022-10-18T13:17:25.990Z,25.29
2022-10-18T13:29:05.662Z,25.36
2022-10-18T13:34:49.379Z,25.43
2022-10-18T13:40:33.082Z,25.42
2022-10-18T13:46:16.779Z,25.45
2022-10-18T13:52:07.715Z,25.47
2022-10-18T13:57:57.054Z,25.52
2022-10-18T14:03:58.465Z,25.55
2022-10-18T14:09:49.952Z,25.65
2022-10-18T14:15:45.504Z,25.75
2022-10-18T14:21:33.912Z,25.79
2022-10-18T14:27:20.832Z,25.79
2022-10-18T14:33:04.551Z,25.84
2022-10-18T14:38:51.311Z,25.87
2022-10-18T14:44:34.674Z,25.84
2022-10-18T14:50:30.290Z,25.73
2022-10-18T14:56:20.086Z,25.53
2022-10-18T15:02:04.505Z,25.36
2022-10-18T15:07:50.304Z,25.24
2022-10-18T15:13:34.299Z,25.12
2022-10-18T15:19:37.954Z,24.97
2022-10-18T15:25:22.470Z,24.78
2022-10-18T15:31:21.701Z,24.55
2022-10-18T15:37:10.926Z,24.41
2022-10-18T15:42:55.307Z,24.32
2022-10-18T15:48:40.244Z,24.29
2022-10-18T15:54:28.667Z,24.18
2022-10-18T16:00:18.212Z,24.07
2022-10-18T16:06:03.741Z,24.01
2022-10-18T16:11:47.067Z,23.9
2022-10-18T16:17:38.516Z,23.78
2022-10-18T16:23:23.565Z,23.67
2022-10-18T16:29:10.009Z,23.58
2022-10-18T16:34:53.531Z,23.49
2022-10-18T16:40:38.912Z,23.41
2022-10-18T16:46:26.076Z,23.32
2022-10-18T16:52:09.471Z,23.22
2022-10-18T16:57:52.877Z,23.11
2022-10-18T17:03:36.211Z,22.98
2022-10-18T17:09:19.443Z,22.8
2022-10-18T17:15:03.130Z,22.7
2022-10-18T17:20:46.593Z,22.61
2022-10-18T17:26:30.927Z,22.49
2022-10-18T17:32:14.818Z,22.42
2022-10-18T17:37:57.977Z,22.33
2022-10-18T17:43:41.204Z,22.24
2022-10-18T17:49:24.907Z,22.15
2022-10-18T17:55:08.334Z,22.08
2022-10-18T18:00:52.992Z,21.99
2022-10-18T18:06:41.489Z,21.93
2022-10-18T18:12:24.917Z,21.86
2022-10-18T18:18:08.629Z,21.76
2022-10-18T18:23:52.186Z,21.65
2022-10-18T18:29:35.402Z,21.56
2022-10-18T18:35:18.635Z,21.49
2022-10-18T18:41:09.222Z,21.41
2022-10-18T18:46:52.673Z,21.33
2022-10-18T18:52:36.180Z,21.26
2022-10-18T18:58:19.471Z,21.19
2022-10-18T19:04:04.115Z,21.12
2022-10-18T19:09:47.322Z,21.05
2022-10-18T19:15:30.785Z,20.97
2022-10-18T19:21:14.393Z,20.88
2022-10-18T19:26:58.426Z,20.82
2022-10-18T19:32:41.860Z,20.75
2022-10-18T19:38:25.027Z,20.69
2022-10-18T19:44:08.354Z,20.62
2022-10-18T19:49:51.462Z,20.56
2022-10-18T19:55:34.630Z,20.5
2022-10-18T20:01:18.995Z,20.45
2022-10-18T20:07:03.049Z,20.44
2022-10-18T20:12:46.519Z,20.41
2022-10-18T20:18:30.483Z,20.35
2022-10-18T20:24:14.152Z,20.29
2022-10-18T20:30:00.074Z,20.26
2022-10-18T20:35:51.402Z,20.22
2022-10-18T20:41:38.228Z,20.22
2022-10-18T20:47:22.900Z,20.2
2022-10-18T20:53:07.461Z,20.16
2022-10-18T20:58:51.645Z,20.13
2022-10-18T21:04:35.828Z,20.07
2022-10-18T21:10:25.422Z,20.04
2022-10-18T21:16:08.909Z,19.97
2022-10-18T21:21:54.440Z,19.91
2022-10-18T21:27:38.024Z,19.88
2022-10-18T21:33:21.482Z,19.85
2022-10-18T21:39:06.662Z,19.83
2022-10-18T21:44:50.016Z,19.78
2022-10-18T21:50:33.447Z,19.74
2022-10-18T21:56:17.335Z,19.71
2022-10-18T22:02:00.455Z,19.69
2022-10-18T22:07:43.790Z,19.64
2022-10-18T22:13:27.047Z,19.59
2022-10-18T22:19:10.319Z,19.55
2022-10-18T22:24:53.522Z,19.52
2022-10-18T22:30:39.616Z,19.49
2022-10-18T22:36:23.029Z,19.48
2022-10-18T22:42:06.121Z,19.45
2022-10-18T22:47:49.359Z,19.39
2022-10-18T22:53:33.197Z,19.35
2022-10-18T22:59:16.398Z,19.32
2022-10-18T23:04:59.847Z,19.32
2022-10-18T23:10:43.236Z,19.31
2022-10-18T23:16:26.411Z,19.27
2022-10-18T23:22:09.562Z,19.23
2022-10-18T23:27:52.671Z,19.21
2022-10-18T23:33:35.728Z,19.2
2022-10-18T23:39:19.284Z,19.17
2022-10-18T23:45:02.498Z,19.16
2022-10-18T23:50:46.002Z,19.12
2022-10-18T23:56:29.200Z,19.1
